Disclaimer

Please do not use the information listed here in-flight or in-navigation, as they are not provided to us by the airports but are provided by volunteers, so they might be outdated.

Search


Regions


Airport information page

Radio informations:
Tower (TWR) - 118.1 MHz
CIVIL DEFENSE - 121.6 MHz
Ground (GND) - 121.9 MHz
Approach (APP) - 119.2 MHz

Airport informations:
Latitude: 29° 36' 41.83" N
Longitude: 035° 01' 05.04" E
Elevation: 175 feet - 53 meters
Operating hours: Remarks
Operating agency: Civil government, landing fees and diplomatic clearance may be required
Timezone: UTC+2(+3DT) - Dates notified by NOTAM
Fuel: Jet A1, without icing nhibitor.

Runway information:
01/19 - 9855 x 148 feet< - >3004 x 45 meters

Recent METARs:
OJAQ 190300Z 00000KT CAVOK 18/07 Q1013 NOSIG
OJAQ 190300Z 00000KT CAVOK 18/07 Q1013 NOSIG
OJAQ 190500Z 00000KT CAVOK 18/07 Q1013 NOSIG

Airport on the map: